Terminal Aerodrome Forecast
Issued by NWS

Home | Current Version | Previous Version | Text Only | Print | Product List | Glossary On
Versions: 1 2 3 4 5 6 7 8 9 10 11 12 13 14 15 16 17 18 19 20
000
FTUS43 KDVN 211725
TAFCID
TAF
KCID 211725Z 2118/2218 27018G26KT P6SM BKN025
     FM212200 28015KT P6SM BKN035
     FM220300 23006KT P6SM SCT040
     FM221600 24010KT P6SM SCT030=

USA.gov is the U.S. government's official web portal to all federal, state and local government web resources and services.